sensor_id;sensor_type;location;lat;lon;timestamp;noise_LAeq;noise_LA_min;noise_LA_max;noise_LA01;noise_LA95
67398;Laerm;57728;50.448;18.824;2024-01-16T00:00:39;45.62;41.37;49.16;;
67398;Laerm;57728;50.448;18.824;2024-01-16T00:02:40;46.12;41.85;49.15;;
67398;Laerm;57728;50.448;18.824;2024-01-16T00:04:41;45.91;41.54;57.12;;
67398;Laerm;57728;50.448;18.824;2024-01-16T00:06:44;45.39;41.65;56.56;;
67398;Laerm;57728;50.448;18.824;2024-01-16T00:08:45;45.63;41.46;54.40;;
67398;Laerm;57728;50.448;18.824;2024-01-16T00:10:46;46.02;40.79;59.11;;
67398;Laerm;57728;50.448;18.824;2024-01-16T00:12:49;45.99;41.45;59.11;;
67398;Laerm;57728;50.448;18.824;2024-01-16T00:14:50;45.76;41.33;55.82;;
67398;Laerm;57728;50.448;18.824;2024-01-16T00:16:51;45.62;41.48;58.12;;
67398;Laerm;57728;50.448;18.824;2024-01-16T00:18:53;46.00;41.31;49.22;;
67398;Laerm;57728;50.448;18.824;2024-01-16T00:20:54;46.05;41.71;49.02;;
67398;Laerm;57728;50.448;18.824;2024-01-16T00:22:55;46.44;42.47;49.53;;
67398;Laerm;57728;50.448;18.824;2024-01-16T00:24:57;46.11;41.60;53.31;;
67398;Laerm;57728;50.448;18.824;2024-01-16T00:26:59;45.68;41.15;51.18;;
67398;Laerm;57728;50.448;18.824;2024-01-16T00:29:00;46.00;41.11;59.34;;
67398;Laerm;57728;50.448;18.824;2024-01-16T00:31:07;45.89;40.96;54.76;;
67398;Laerm;57728;50.448;18.824;2024-01-16T00:33:09;46.26;41.30;49.19;;
67398;Laerm;57728;50.448;18.824;2024-01-16T00:35:11;46.05;41.35;49.10;;
67398;Laerm;57728;50.448;18.824;2024-01-16T00:37:13;46.11;41.86;53.94;;
67398;Laerm;57728;50.448;18.824;2024-01-16T00:39:14;46.31;41.69;49.27;;
67398;Laerm;57728;50.448;18.824;2024-01-16T00:41:15;46.11;41.03;49.14;;
67398;Laerm;57728;50.448;18.824;2024-01-16T00:43:17;46.07;41.44;49.37;;
67398;Laerm;57728;50.448;18.824;2024-01-16T00:45:18;46.34;41.47;49.03;;
67398;Laerm;57728;50.448;18.824;2024-01-16T00:47:19;46.37;41.90;49.15;;
67398;Laerm;57728;50.448;18.824;2024-01-16T00:49:21;46.19;41.18;52.51;;
67398;Laerm;57728;50.448;18.824;2024-01-16T00:51:23;45.96;41.44;49.08;;
67398;Laerm;57728;50.448;18.824;2024-01-16T00:53:24;46.26;41.86;49.33;;
67398;Laerm;57728;50.448;18.824;2024-01-16T00:55:26;46.25;41.70;48.94;;
67398;Laerm;57728;50.448;18.824;2024-01-16T00:57:27;45.91;41.04;50.00;;
67398;Laerm;57728;50.448;18.824;2024-01-16T00:59:28;45.99;41.34;49.49;;
67398;Laerm;57728;50.448;18.824;2024-01-16T01:01:30;46.23;41.78;48.80;;
67398;Laerm;57728;50.448;18.824;2024-01-16T01:03:31;46.12;41.43;49.07;;
67398;Laerm;57728;50.448;18.824;2024-01-16T01:05:32;45.98;41.35;49.77;;
67398;Laerm;57728;50.448;18.824;2024-01-16T01:07:34;46.12;41.65;49.13;;
67398;Laerm;57728;50.448;18.824;2024-01-16T01:09:35;46.30;41.80;48.91;;
67398;Laerm;57728;50.448;18.824;2024-01-16T01:11:38;46.10;41.64;49.12;;
67398;Laerm;57728;50.448;18.824;2024-01-16T01:13:40;46.06;41.56;50.72;;
67398;Laerm;57728;50.448;18.824;2024-01-16T01:15:42;46.03;41.50;49.03;;
67398;Laerm;57728;50.448;18.824;2024-01-16T01:17:43;45.80;41.28;49.01;;
67398;Laerm;57728;50.448;18.824;2024-01-16T01:19:45;45.83;40.87;49.07;;
67398;Laerm;57728;50.448;18.824;2024-01-16T01:21:47;45.85;41.89;51.11;;
67398;Laerm;57728;50.448;18.824;2024-01-16T01:23:48;46.05;41.73;49.14;;
67398;Laerm;57728;50.448;18.824;2024-01-16T01:25:51;46.10;41.06;49.33;;
67398;Laerm;57728;50.448;18.824;2024-01-16T01:27:52;45.93;41.48;48.86;;
67398;Laerm;57728;50.448;18.824;2024-01-16T01:29:54;45.78;41.43;49.07;;
67398;Laerm;57728;50.448;18.824;2024-01-16T01:31:56;46.06;41.11;48.73;;
67398;Laerm;57728;50.448;18.824;2024-01-16T01:33:57;46.24;41.10;49.00;;
67398;Laerm;57728;50.448;18.824;2024-01-16T01:35:58;45.77;41.15;49.42;;
67398;Laerm;57728;50.448;18.824;2024-01-16T01:38:00;45.84;41.65;48.67;;
67398;Laerm;57728;50.448;18.824;2024-01-16T01:40:01;45.79;41.45;48.63;;
67398;Laerm;57728;50.448;18.824;2024-01-16T01:42:04;46.06;41.12;50.15;;
67398;Laerm;57728;50.448;18.824;2024-01-16T01:44:06;46.19;41.30;49.56;;
67398;Laerm;57728;50.448;18.824;2024-01-16T01:46:19;46.13;41.41;48.94;;
67398;Laerm;57728;50.448;18.824;2024-01-16T01:48:20;46.07;41.54;48.96;;
67398;Laerm;57728;50.448;18.824;2024-01-16T01:50:22;46.03;41.52;49.43;;
67398;Laerm;57728;50.448;18.824;2024-01-16T01:52:24;46.41;41.72;49.15;;
67398;Laerm;57728;50.448;18.824;2024-01-16T01:54:27;46.23;41.75;49.07;;
67398;Laerm;57728;50.448;18.824;2024-01-16T01:56:29;46.03;41.54;50.31;;
67398;Laerm;57728;50.448;18.824;2024-01-16T01:58:30;46.08;41.62;49.30;;
67398;Laerm;57728;50.448;18.824;2024-01-16T02:00:32;46.12;41.62;49.15;;
67398;Laerm;57728;50.448;18.824;2024-01-16T02:02:35;46.16;41.52;48.68;;
67398;Laerm;57728;50.448;18.824;2024-01-16T02:04:40;46.17;41.85;48.96;;
67398;Laerm;57728;50.448;18.824;2024-01-16T02:06:43;45.96;41.41;59.20;;
67398;Laerm;57728;50.448;18.824;2024-01-16T02:08:46;45.82;41.57;50.57;;
67398;Laerm;57728;50.448;18.824;2024-01-16T02:10:49;45.69;41.49;53.02;;
67398;Laerm;57728;50.448;18.824;2024-01-16T02:12:52;45.82;41.98;49.26;;
67398;Laerm;57728;50.448;18.824;2024-01-16T02:14:53;45.59;41.24;48.67;;
67398;Laerm;57728;50.448;18.824;2024-01-16T02:16:54;45.75;40.92;52.54;;
67398;Laerm;57728;50.448;18.824;2024-01-16T02:18:56;45.64;40.86;53.91;;
67398;Laerm;57728;50.448;18.824;2024-01-16T02:21:00;45.82;40.91;55.16;;
67398;Laerm;57728;50.448;18.824;2024-01-16T02:23:07;45.06;40.81;56.38;;
67398;Laerm;57728;50.448;18.824;2024-01-16T02:25:09;45.49;41.03;50.88;;
67398;Laerm;57728;50.448;18.824;2024-01-16T02:27:11;45.73;41.02;64.16;;
67398;Laerm;57728;50.448;18.824;2024-01-16T02:29:12;45.69;41.19;59.12;;
67398;Laerm;57728;50.448;18.824;2024-01-16T02:31:14;45.80;41.25;56.73;;
67398;Laerm;57728;50.448;18.824;2024-01-16T02:33:16;45.49;40.91;61.96;;
67398;Laerm;57728;50.448;18.824;2024-01-16T02:35:17;45.72;41.31;53.65;;
67398;Laerm;57728;50.448;18.824;2024-01-16T02:37:20;45.99;41.35;49.33;;
67398;Laerm;57728;50.448;18.824;2024-01-16T02:39:21;46.22;41.42;55.28;;
67398;Laerm;57728;50.448;18.824;2024-01-16T02:41:22;46.07;41.18;60.20;;
67398;Laerm;57728;50.448;18.824;2024-01-16T02:43:24;46.08;41.11;55.28;;
67398;Laerm;57728;50.448;18.824;2024-01-16T02:45:27;46.45;41.66;51.46;;
67398;Laerm;57728;50.448;18.824;2024-01-16T02:47:28;46.69;41.36;49.44;;
67398;Laerm;57728;50.448;18.824;2024-01-16T02:49:30;46.74;41.82;60.01;;
67398;Laerm;57728;50.448;18.824;2024-01-16T02:51:33;46.67;41.87;51.19;;
67398;Laerm;57728;50.448;18.824;2024-01-16T02:53:35;46.41;41.56;49.65;;
67398;Laerm;57728;50.448;18.824;2024-01-16T02:55:37;46.77;41.69;50.05;;
67398;Laerm;57728;50.448;18.824;2024-01-16T02:57:38;46.91;41.76;49.86;;
67398;Laerm;57728;50.448;18.824;2024-01-16T02:59:39;47.08;42.27;49.79;;
67398;Laerm;57728;50.448;18.824;2024-01-16T03:01:42;46.96;42.40;49.77;;
67398;Laerm;57728;50.448;18.824;2024-01-16T03:03:43;46.76;41.34;49.91;;
67398;Laerm;57728;50.448;18.824;2024-01-16T03:05:45;46.96;41.92;49.84;;
67398;Laerm;57728;50.448;18.824;2024-01-16T03:07:47;46.31;42.06;55.54;;
67398;Laerm;57728;50.448;18.824;2024-01-16T03:09:48;46.28;42.09;53.40;;
67398;Laerm;57728;50.448;18.824;2024-01-16T03:11:49;46.54;41.99;50.34;;
67398;Laerm;57728;50.448;18.824;2024-01-16T03:13:51;46.28;41.96;50.62;;
67398;Laerm;57728;50.448;18.824;2024-01-16T03:15:54;46.71;41.88;54.10;;
67398;Laerm;57728;50.448;18.824;2024-01-16T03:17:55;46.34;41.87;49.83;;
67398;Laerm;57728;50.448;18.824;2024-01-16T03:19:57;46.52;41.82;53.29;;
67398;Laerm;57728;50.448;18.824;2024-01-16T03:21:59;46.38;42.13;52.03;;
67398;Laerm;57728;50.448;18.824;2024-01-16T03:24:00;46.42;41.60;49.68;;
67398;Laerm;57728;50.448;18.824;2024-01-16T03:26:02;46.51;41.98;55.70;;
67398;Laerm;57728;50.448;18.824;2024-01-16T03:28:05;46.57;41.85;49.84;;
67398;Laerm;57728;50.448;18.824;2024-01-16T03:30:09;46.30;42.11;56.07;;
67398;Laerm;57728;50.448;18.824;2024-01-16T03:32:11;46.63;41.89;49.95;;
67398;Laerm;57728;50.448;18.824;2024-01-16T03:34:12;46.64;42.05;54.54;;
67398;Laerm;57728;50.448;18.824;2024-01-16T03:36:13;46.71;41.70;63.13;;
67398;Laerm;57728;50.448;18.824;2024-01-16T03:38:17;46.51;41.49;55.06;;
67398;Laerm;57728;50.448;18.824;2024-01-16T03:40:18;46.60;41.87;50.63;;
67398;Laerm;57728;50.448;18.824;2024-01-16T03:42:19;46.68;42.24;50.22;;
67398;Laerm;57728;50.448;18.824;2024-01-16T03:44:21;46.97;42.28;49.90;;
67398;Laerm;57728;50.448;18.824;2024-01-16T03:46:23;46.57;42.36;50.04;;
67398;Laerm;57728;50.448;18.824;2024-01-16T03:48:24;47.08;42.29;49.89;;
67398;Laerm;57728;50.448;18.824;2024-01-16T03:50:26;47.33;42.39;50.36;;
67398;Laerm;57728;50.448;18.824;2024-01-16T03:52:27;47.09;41.84;51.16;;
67398;Laerm;57728;50.448;18.824;2024-01-16T03:54:28;47.15;41.90;49.67;;
67398;Laerm;57728;50.448;18.824;2024-01-16T03:56:30;47.08;42.29;53.10;;
67398;Laerm;57728;50.448;18.824;2024-01-16T03:58:32;46.39;41.41;49.23;;
67398;Laerm;57728;50.448;18.824;2024-01-16T04:00:33;46.56;41.51;49.65;;
67398;Laerm;57728;50.448;18.824;2024-01-16T04:02:37;46.18;41.30;50.95;;
67398;Laerm;57728;50.448;18.824;2024-01-16T04:04:39;46.28;41.37;49.19;;
67398;Laerm;57728;50.448;18.824;2024-01-16T04:06:40;45.96;41.24;49.14;;
67398;Laerm;57728;50.448;18.824;2024-01-16T04:08:43;45.82;40.93;54.93;;
67398;Laerm;57728;50.448;18.824;2024-01-16T04:10:44;45.46;40.83;49.68;;
67398;Laerm;57728;50.448;18.824;2024-01-16T04:12:45;45.70;40.70;48.03;;
67398;Laerm;57728;50.448;18.824;2024-01-16T04:14:47;45.61;42.79;48.35;;
67398;Laerm;57728;50.448;18.824;2024-01-16T04:16:48;45.18;40.47;48.14;;
67398;Laerm;57728;50.448;18.824;2024-01-16T04:18:49;45.19;41.11;47.31;;
67398;Laerm;57728;50.448;18.824;2024-01-16T04:20:53;45.10;41.70;47.68;;
67398;Laerm;57728;50.448;18.824;2024-01-16T04:22:54;45.22;42.33;47.35;;
67398;Laerm;57728;50.448;18.824;2024-01-16T04:24:55;45.11;41.42;47.46;;
67398;Laerm;57728;50.448;18.824;2024-01-16T04:26:57;44.92;41.11;47.48;;
67398;Laerm;57728;50.448;18.824;2024-01-16T04:28:58;44.90;41.10;47.16;;
67398;Laerm;57728;50.448;18.824;2024-01-16T04:31:01;44.75;40.40;47.16;;
67398;Laerm;57728;50.448;18.824;2024-01-16T04:33:03;44.73;40.66;47.19;;
67398;Laerm;57728;50.448;18.824;2024-01-16T04:35:05;44.77;40.46;47.11;;
67398;Laerm;57728;50.448;18.824;2024-01-16T04:37:06;44.77;41.16;46.69;;
67398;Laerm;57728;50.448;18.824;2024-01-16T04:39:08;44.74;42.66;46.68;;
67398;Laerm;57728;50.448;18.824;2024-01-16T04:41:09;44.76;41.22;46.75;;
67398;Laerm;57728;50.448;18.824;2024-01-16T04:43:11;44.75;41.66;46.64;;
67398;Laerm;57728;50.448;18.824;2024-01-16T04:45:13;44.76;41.88;46.89;;
67398;Laerm;57728;50.448;18.824;2024-01-16T04:47:15;44.72;42.68;46.82;;
67398;Laerm;57728;50.448;18.824;2024-01-16T04:49:16;44.70;40.56;47.66;;
67398;Laerm;57728;50.448;18.824;2024-01-16T04:51:18;44.71;41.01;46.83;;
67398;Laerm;57728;50.448;18.824;2024-01-16T04:53:19;44.54;40.32;46.96;;
67398;Laerm;57728;50.448;18.824;2024-01-16T04:55:23;44.51;40.17;46.87;;
67398;Laerm;57728;50.448;18.824;2024-01-16T04:57:25;44.72;40.45;46.95;;
67398;Laerm;57728;50.448;18.824;2024-01-16T04:59:26;44.67;40.26;46.87;;
67398;Laerm;57728;50.448;18.824;2024-01-16T05:01:28;44.75;40.36;46.97;;
67398;Laerm;57728;50.448;18.824;2024-01-16T05:03:32;44.71;40.61;46.89;;
67398;Laerm;57728;50.448;18.824;2024-01-16T05:05:33;44.69;40.74;46.95;;
67398;Laerm;57728;50.448;18.824;2024-01-16T05:07:34;44.48;40.34;51.72;;
67398;Laerm;57728;50.448;18.824;2024-01-16T05:09:37;44.66;40.18;46.55;;
67398;Laerm;57728;50.448;18.824;2024-01-16T05:11:38;44.76;40.31;47.17;;
67398;Laerm;57728;50.448;18.824;2024-01-16T05:13:39;44.64;40.40;46.94;;
67398;Laerm;57728;50.448;18.824;2024-01-16T05:15:41;44.83;42.09;47.03;;
67398;Laerm;57728;50.448;18.824;2024-01-16T05:17:43;44.77;40.98;47.05;;
67398;Laerm;57728;50.448;18.824;2024-01-16T05:19:44;44.75;41.94;46.70;;
67398;Laerm;57728;50.448;18.824;2024-01-16T05:21:46;44.78;41.05;47.04;;
67398;Laerm;57728;50.448;18.824;2024-01-16T05:23:47;44.77;42.03;46.86;;
67398;Laerm;57728;50.448;18.824;2024-01-16T05:25:51;44.76;42.16;47.02;;
67398;Laerm;57728;50.448;18.824;2024-01-16T05:27:52;44.72;41.77;46.88;;
67398;Laerm;57728;50.448;18.824;2024-01-16T05:29:54;44.62;42.33;46.78;;
67398;Laerm;57728;50.448;18.824;2024-01-16T05:31:55;44.49;42.30;46.67;;
67398;Laerm;57728;50.448;18.824;2024-01-16T05:33:57;44.75;41.50;53.58;;
67398;Laerm;57728;50.448;18.824;2024-01-16T05:35:59;43.94;41.68;46.19;;
67398;Laerm;57728;50.448;18.824;2024-01-16T05:38:00;44.13;42.03;46.33;;
67398;Laerm;57728;50.448;18.824;2024-01-16T05:40:02;44.32;40.93;47.35;;
67398;Laerm;57728;50.448;18.824;2024-01-16T05:42:04;44.33;41.26;46.58;;
67398;Laerm;57728;50.448;18.824;2024-01-16T05:44:06;44.28;41.82;46.32;;
67398;Laerm;57728;50.448;18.824;2024-01-16T05:46:08;44.36;41.98;46.42;;
67398;Laerm;57728;50.448;18.824;2024-01-16T05:48:10;44.65;42.42;47.05;;
67398;Laerm;57728;50.448;18.824;2024-01-16T05:50:11;44.72;41.35;46.71;;
67398;Laerm;57728;50.448;18.824;2024-01-16T05:52:13;44.73;42.32;46.77;;
67398;Laerm;57728;50.448;18.824;2024-01-16T05:54:14;44.74;42.30;46.85;;
67398;Laerm;57728;50.448;18.824;2024-01-16T05:56:15;44.74;42.32;47.06;;
67398;Laerm;57728;50.448;18.824;2024-01-16T05:58:17;44.74;41.80;46.89;;
67398;Laerm;57728;50.448;18.824;2024-01-16T06:00:19;44.75;42.60;46.73;;
67398;Laerm;57728;50.448;18.824;2024-01-16T06:02:24;44.68;42.35;46.65;;
67398;Laerm;57728;50.448;18.824;2024-01-16T06:04:29;44.74;42.25;46.97;;
67398;Laerm;57728;50.448;18.824;2024-01-16T06:06:30;44.78;42.71;46.77;;
67398;Laerm;57728;50.448;18.824;2024-01-16T06:08:31;44.74;41.79;47.04;;
67398;Laerm;57728;50.448;18.824;2024-01-16T06:10:33;44.71;40.49;47.08;;
67398;Laerm;57728;50.448;18.824;2024-01-16T06:12:34;44.68;40.91;47.37;;
67398;Laerm;57728;50.448;18.824;2024-01-16T06:14:36;44.72;40.64;53.85;;
67398;Laerm;57728;50.448;18.824;2024-01-16T06:16:38;44.65;41.11;46.87;;
67398;Laerm;57728;50.448;18.824;2024-01-16T06:18:39;44.62;41.05;47.24;;
67398;Laerm;57728;50.448;18.824;2024-01-16T06:20:40;44.80;42.25;46.99;;
67398;Laerm;57728;50.448;18.824;2024-01-16T06:22:42;44.79;40.49;57.29;;
67398;Laerm;57728;50.448;18.824;2024-01-16T06:24:43;44.82;40.07;54.67;;
67398;Laerm;57728;50.448;18.824;2024-01-16T06:26:44;44.76;40.44;59.02;;
67398;Laerm;57728;50.448;18.824;2024-01-16T06:28:46;44.82;40.66;46.91;;
67398;Laerm;57728;50.448;18.824;2024-01-16T06:30:47;44.78;40.80;47.13;;
67398;Laerm;57728;50.448;18.824;2024-01-16T06:32:49;44.84;40.80;51.65;;
67398;Laerm;57728;50.448;18.824;2024-01-16T06:34:51;44.82;40.19;47.02;;
67398;Laerm;57728;50.448;18.824;2024-01-16T06:36:53;44.77;40.55;48.32;;
67398;Laerm;57728;50.448;18.824;2024-01-16T06:38:54;44.97;40.93;47.13;;
67398;Laerm;57728;50.448;18.824;2024-01-16T06:40:57;44.66;40.41;49.20;;
67398;Laerm;57728;50.448;18.824;2024-01-16T06:42:58;45.12;41.19;49.25;;
67398;Laerm;57728;50.448;18.824;2024-01-16T06:44:59;45.07;41.17;47.14;;
67398;Laerm;57728;50.448;18.824;2024-01-16T06:47:01;45.31;42.12;63.59;;
67398;Laerm;57728;50.448;18.824;2024-01-16T06:49:02;45.08;41.52;50.61;;
67398;Laerm;57728;50.448;18.824;2024-01-16T06:51:04;44.96;40.76;47.51;;
67398;Laerm;57728;50.448;18.824;2024-01-16T06:53:06;45.01;40.97;53.22;;
67398;Laerm;57728;50.448;18.824;2024-01-16T06:55:08;44.98;40.92;47.72;;
67398;Laerm;57728;50.448;18.824;2024-01-16T06:57:09;44.87;40.63;47.37;;
67398;Laerm;57728;50.448;18.824;2024-01-16T06:59:11;45.03;40.83;47.48;;
67398;Laerm;57728;50.448;18.824;2024-01-16T07:01:12;45.15;40.79;51.14;;
67398;Laerm;57728;50.448;18.824;2024-01-16T07:03:13;45.10;41.27;47.82;;
67398;Laerm;57728;50.448;18.824;2024-01-16T07:05:16;44.97;41.02;47.77;;
67398;Laerm;57728;50.448;18.824;2024-01-16T07:07:17;45.43;40.78;48.32;;
67398;Laerm;57728;50.448;18.824;2024-01-16T07:09:19;45.68;42.10;48.71;;
67398;Laerm;57728;50.448;18.824;2024-01-16T07:11:22;45.75;41.12;49.87;;
67398;Laerm;57728;50.448;18.824;2024-01-16T07:13:23;45.63;40.84;48.22;;
67398;Laerm;57728;50.448;18.824;2024-01-16T07:15:25;45.68;40.93;48.24;;
67398;Laerm;57728;50.448;18.824;2024-01-16T07:17:27;45.71;41.19;48.14;;
67398;Laerm;57728;50.448;18.824;2024-01-16T07:19:28;45.83;41.53;48.70;;
67398;Laerm;57728;50.448;18.824;2024-01-16T07:21:30;45.86;40.60;52.77;;
67398;Laerm;57728;50.448;18.824;2024-01-16T07:23:33;45.79;41.09;49.64;;
67398;Laerm;57728;50.448;18.824;2024-01-16T07:25:34;46.14;41.18;63.11;;
67398;Laerm;57728;50.448;18.824;2024-01-16T07:27:36;46.13;42.13;48.54;;
67398;Laerm;57728;50.448;18.824;2024-01-16T07:29:38;46.17;41.41;48.96;;
67398;Laerm;57728;50.448;18.824;2024-01-16T07:31:40;46.32;43.40;49.15;;
67398;Laerm;57728;50.448;18.824;2024-01-16T07:33:42;46.50;42.38;51.57;;
67398;Laerm;57728;50.448;18.824;2024-01-16T07:35:44;46.38;41.05;60.63;;
67398;Laerm;57728;50.448;18.824;2024-01-16T07:37:48;45.96;40.96;49.04;;
67398;Laerm;57728;50.448;18.824;2024-01-16T07:39:49;46.15;41.15;53.95;;
67398;Laerm;57728;50.448;18.824;2024-01-16T07:41:51;46.25;40.86;50.43;;
67398;Laerm;57728;50.448;18.824;2024-01-16T07:43:53;46.22;41.62;48.98;;
67398;Laerm;57728;50.448;18.824;2024-01-16T07:45:55;46.32;42.06;49.11;;
67398;Laerm;57728;50.448;18.824;2024-01-16T07:47:57;46.57;42.15;49.33;;
67398;Laerm;57728;50.448;18.824;2024-01-16T07:50:00;46.62;42.22;50.44;;
67398;Laerm;57728;50.448;18.824;2024-01-16T07:52:01;46.43;41.92;51.39;;
67398;Laerm;57728;50.448;18.824;2024-01-16T07:54:09;46.74;41.79;51.35;;
67398;Laerm;57728;50.448;18.824;2024-01-16T07:56:11;46.84;42.11;53.37;;
67398;Laerm;57728;50.448;18.824;2024-01-16T07:58:13;46.82;42.11;56.05;;
67398;Laerm;57728;50.448;18.824;2024-01-16T08:00:16;46.76;41.93;51.31;;
67398;Laerm;57728;50.448;18.824;2024-01-16T08:02:17;46.52;42.15;50.79;;
67398;Laerm;57728;50.448;18.824;2024-01-16T08:04:19;46.74;42.10;60.45;;
67398;Laerm;57728;50.448;18.824;2024-01-16T08:06:21;46.64;41.89;51.71;;
67398;Laerm;57728;50.448;18.824;2024-01-16T08:08:22;46.69;41.86;49.71;;
67398;Laerm;57728;50.448;18.824;2024-01-16T08:10:24;46.64;41.75;49.46;;
67398;Laerm;57728;50.448;18.824;2024-01-16T08:12:26;46.76;41.82;52.17;;
67398;Laerm;57728;50.448;18.824;2024-01-16T08:14:27;46.76;42.17;52.08;;
67398;Laerm;57728;50.448;18.824;2024-01-16T08:16:29;46.89;42.34;49.94;;
67398;Laerm;57728;50.448;18.824;2024-01-16T08:18:31;46.80;42.16;49.65;;
67398;Laerm;57728;50.448;18.824;2024-01-16T08:20:33;46.64;42.14;53.02;;
67398;Laerm;57728;50.448;18.824;2024-01-16T08:22:34;46.75;42.32;51.01;;
67398;Laerm;57728;50.448;18.824;2024-01-16T08:24:36;47.02;42.24;58.21;;
67398;Laerm;57728;50.448;18.824;2024-01-16T08:26:38;46.51;42.13;52.08;;
67398;Laerm;57728;50.448;18.824;2024-01-16T08:28:39;46.23;41.86;53.00;;
67398;Laerm;57728;50.448;18.824;2024-01-16T08:30:41;46.12;41.43;56.91;;
67398;Laerm;57728;50.448;18.824;2024-01-16T08:32:42;47.53;42.51;58.03;;
67398;Laerm;57728;50.448;18.824;2024-01-16T08:34:44;51.14;44.70;56.20;;
67398;Laerm;57728;50.448;18.824;2024-01-16T08:36:46;52.51;45.77;56.72;;
67398;Laerm;57728;50.448;18.824;2024-01-16T08:38:47;51.37;45.29;56.26;;
67398;Laerm;57728;50.448;18.824;2024-01-16T08:40:48;50.68;44.63;59.86;;
67398;Laerm;57728;50.448;18.824;2024-01-16T08:42:50;48.71;43.82;58.94;;
67398;Laerm;57728;50.448;18.824;2024-01-16T08:44:55;48.16;43.49;57.80;;
67398;Laerm;57728;50.448;18.824;2024-01-16T08:46:56;48.28;43.77;52.91;;
67398;Laerm;57728;50.448;18.824;2024-01-16T08:49:01;47.67;43.05;55.05;;
67398;Laerm;57728;50.448;18.824;2024-01-16T08:51:08;47.94;42.93;51.63;;
67398;Laerm;57728;50.448;18.824;2024-01-16T08:53:10;48.27;43.18;52.23;;
67398;Laerm;57728;50.448;18.824;2024-01-16T08:55:12;47.99;43.50;54.72;;
67398;Laerm;57728;50.448;18.824;2024-01-16T08:57:14;48.22;43.23;53.54;;
67398;Laerm;57728;50.448;18.824;2024-01-16T08:59:16;48.26;42.98;66.39;;
67398;Laerm;57728;50.448;18.824;2024-01-16T09:01:18;48.54;43.31;51.76;;
67398;Laerm;57728;50.448;18.824;2024-01-16T09:03:19;48.28;43.67;51.70;;
67398;Laerm;57728;50.448;18.824;2024-01-16T09:05:20;48.61;43.17;51.87;;
67398;Laerm;57728;50.448;18.824;2024-01-16T09:07:27;48.67;43.76;55.90;;
67398;Laerm;57728;50.448;18.824;2024-01-16T09:09:28;48.37;43.57;59.55;;
67398;Laerm;57728;50.448;18.824;2024-01-16T09:11:30;48.48;43.55;55.50;;
67398;Laerm;57728;50.448;18.824;2024-01-16T09:13:32;48.14;43.58;55.52;;
67398;Laerm;57728;50.448;18.824;2024-01-16T09:15:33;48.57;43.54;60.05;;
67398;Laerm;57728;50.448;18.824;2024-01-16T09:17:35;48.21;42.97;56.06;;
67398;Laerm;57728;50.448;18.824;2024-01-16T09:19:37;48.06;43.21;51.78;;
67398;Laerm;57728;50.448;18.824;2024-01-16T09:21:38;47.63;43.17;52.96;;
67398;Laerm;57728;50.448;18.824;2024-01-16T09:23:42;48.19;43.16;62.12;;
67398;Laerm;57728;50.448;18.824;2024-01-16T09:25:45;48.84;43.27;57.15;;
67398;Laerm;57728;50.448;18.824;2024-01-16T09:27:47;51.36;43.80;58.48;;
67398;Laerm;57728;50.448;18.824;2024-01-16T09:29:48;50.83;44.26;55.18;;
67398;Laerm;57728;50.448;18.824;2024-01-16T09:31:51;54.65;45.57;65.46;;
67398;Laerm;57728;50.448;18.824;2024-01-16T09:33:52;54.55;47.38;61.14;;
67398;Laerm;57728;50.448;18.824;2024-01-16T09:35:53;53.21;46.18;59.74;;
67398;Laerm;57728;50.448;18.824;2024-01-16T09:37:55;51.36;45.01;55.23;;
67398;Laerm;57728;50.448;18.824;2024-01-16T09:39:56;55.71;46.35;63.53;;
67398;Laerm;57728;50.448;18.824;2024-01-16T09:42:00;52.36;47.27;55.95;;
67398;Laerm;57728;50.448;18.824;2024-01-16T09:44:06;51.57;46.07;56.01;;
67398;Laerm;57728;50.448;18.824;2024-01-16T09:46:10;51.43;46.30;55.15;;
67398;Laerm;57728;50.448;18.824;2024-01-16T09:48:13;51.13;46.08;55.54;;
67398;Laerm;57728;50.448;18.824;2024-01-16T09:50:16;51.15;44.76;55.24;;
67398;Laerm;57728;50.448;18.824;2024-01-16T09:52:21;50.46;44.59;55.17;;
67398;Laerm;57728;50.448;18.824;2024-01-16T09:54:22;50.60;45.84;54.03;;
67398;Laerm;57728;50.448;18.824;2024-01-16T09:56:24;50.43;45.57;53.49;;
67398;Laerm;57728;50.448;18.824;2024-01-16T09:58:32;50.52;45.95;53.61;;
67398;Laerm;57728;50.448;18.824;2024-01-16T10:00:36;51.71;45.57;57.50;;
67398;Laerm;57728;50.448;18.824;2024-01-16T10:02:42;52.23;46.99;56.15;;
67398;Laerm;57728;50.448;18.824;2024-01-16T10:04:43;51.94;47.37;56.30;;
67398;Laerm;57728;50.448;18.824;2024-01-16T10:06:46;52.38;46.83;56.79;;
67398;Laerm;57728;50.448;18.824;2024-01-16T10:08:48;52.11;46.56;55.83;;
67398;Laerm;57728;50.448;18.824;2024-01-16T10:10:52;54.42;47.86;58.56;;
67398;Laerm;57728;50.448;18.824;2024-01-16T10:12:55;56.38;50.12;59.56;;
67398;Laerm;57728;50.448;18.824;2024-01-16T10:14:58;57.41;50.93;63.95;;
67398;Laerm;57728;50.448;18.824;2024-01-16T10:17:04;58.18;51.35;70.15;;
67398;Laerm;57728;50.448;18.824;2024-01-16T10:19:16;58.09;52.51;63.40;;
67398;Laerm;57728;50.448;18.824;2024-01-16T10:21:22;58.35;52.86;63.91;;
67398;Laerm;57728;50.448;18.824;2024-01-16T10:25:29;54.72;48.55;58.05;;
67398;Laerm;57728;50.448;18.824;2024-01-16T10:27:32;55.41;49.81;59.34;;
67398;Laerm;57728;50.448;18.824;2024-01-16T10:29:33;54.90;50.31;58.46;;
67398;Laerm;57728;50.448;18.824;2024-01-16T10:31:34;57.40;52.88;61.44;;
67398;Laerm;57728;50.448;18.824;2024-01-16T10:33:37;55.46;50.19;58.93;;
67398;Laerm;57728;50.448;18.824;2024-01-16T10:35:41;54.02;48.84;58.58;;
67398;Laerm;57728;50.448;18.824;2024-01-16T10:39:50;52.90;46.02;56.83;;
67398;Laerm;57728;50.448;18.824;2024-01-16T10:41:57;53.63;48.52;57.21;;
67398;Laerm;57728;50.448;18.824;2024-01-16T10:44:07;52.63;47.75;56.65;;
67398;Laerm;57728;50.448;18.824;2024-01-16T10:46:17;53.11;46.93;58.23;;
67398;Laerm;57728;50.448;18.824;2024-01-16T10:48:18;52.27;45.27;56.50;;
67398;Laerm;57728;50.448;18.824;2024-01-16T10:50:19;52.71;46.56;56.77;;
67398;Laerm;57728;50.448;18.824;2024-01-16T10:52:28;52.38;46.83;56.71;;
67398;Laerm;57728;50.448;18.824;2024-01-16T10:54:32;52.52;46.84;56.44;;
67398;Laerm;57728;50.448;18.824;2024-01-16T10:56:34;55.38;47.46;59.23;;
67398;Laerm;57728;50.448;18.824;2024-01-16T10:58:41;56.05;50.49;59.64;;
67398;Laerm;57728;50.448;18.824;2024-01-16T11:00:52;56.41;51.54;59.54;;
67398;Laerm;57728;50.448;18.824;2024-01-16T11:03:07;62.32;49.20;69.97;;
67398;Laerm;57728;50.448;18.824;2024-01-16T11:05:14;54.42;49.01;58.67;;
67398;Laerm;57728;50.448;18.824;2024-01-16T11:07:17;54.28;47.10;58.98;;
67398;Laerm;57728;50.448;18.824;2024-01-16T11:09:20;54.70;47.16;59.46;;
67398;Laerm;57728;50.448;18.824;2024-01-16T11:11:23;53.48;46.42;57.89;;
67398;Laerm;57728;50.448;18.824;2024-01-16T11:13:26;52.42;45.71;60.86;;
67398;Laerm;57728;50.448;18.824;2024-01-16T11:15:28;52.35;45.71;57.03;;
67398;Laerm;57728;50.448;18.824;2024-01-16T11:17:31;52.32;45.10;56.69;;